createdAt,value
2023-02-06T00:00:49.933Z,103426.03
2023-02-06T00:03:16.714Z,103425.91
2023-02-06T00:05:43.385Z,103430.97
2023-02-06T00:08:09.990Z,103437.03
2023-02-06T00:10:36.620Z,103433.13
2023-02-06T00:13:03.225Z,103435.91
2023-02-06T00:15:29.920Z,103429.66
2023-02-06T00:17:56.489Z,103439.03
2023-02-06T00:20:23.067Z,103433.53
2023-02-06T00:22:49.621Z,103425.34
2023-02-06T00:25:16.215Z,103419.63
2023-02-06T00:27:43.000Z,103422.97
2023-02-06T00:30:10.070Z,103417.50
2023-02-06T00:32:36.869Z,103419.09
2023-02-06T00:35:03.794Z,103412.63
2023-02-06T00:37:30.403Z,103419.09
2023-02-06T00:39:57.060Z,103416.19
2023-02-06T00:42:23.728Z,103412.56
2023-02-06T00:44:50.509Z,103417.72
2023-02-06T00:47:17.040Z,103421.38
2023-02-06T00:49:43.591Z,103417.59
2023-02-06T00:52:10.309Z,103418.81
2023-02-06T00:54:36.917Z,103412.22
2023-02-06T00:57:03.679Z,103420.00
2023-02-06T00:59:30.296Z,103412.72
2023-02-06T01:01:58.229Z,103419.09
2023-02-06T01:04:24.997Z,103419.44
2023-02-06T01:06:51.529Z,103424.72
2023-02-06T01:09:18.155Z,103429.31
2023-02-06T01:11:44.803Z,103436.44
2023-02-06T01:14:11.369Z,103435.09
2023-02-06T01:16:37.930Z,103433.19
2023-02-06T01:19:04.529Z,103435.00
2023-02-06T01:21:33.218Z,103435.06
2023-02-06T01:24:00.009Z,103438.31
2023-02-06T01:26:27.283Z,103439.88
2023-02-06T01:28:55.242Z,103429.41
2023-02-06T01:31:29.420Z,103435.53
2023-02-06T01:33:57.813Z,103427.88
2023-02-06T01:36:25.354Z,103426.06
2023-02-06T01:38:52.723Z,103430.84
2023-02-06T01:41:21.180Z,103431.59
2023-02-06T01:44:13.172Z,103431.81
2023-02-06T01:46:41.429Z,103434.06
2023-02-06T01:49:13.877Z,103429.94
2023-02-06T01:51:41.128Z,103428.28
2023-02-06T01:54:09.191Z,103420.66
2023-02-06T01:56:47.574Z,103416.88
2023-02-06T01:59:14.562Z,103410.22
2023-02-06T02:01:42.064Z,103402.78
2023-02-06T02:04:14.935Z,103417.03
2023-02-06T02:06:41.740Z,103417.53
2023-02-06T02:09:08.416Z,103413.94
2023-02-06T02:11:37.504Z,103417.91
2023-02-06T02:14:08.707Z,103422.00
2023-02-06T02:17:19.429Z,103429.69
2023-02-06T02:20:07.990Z,103423.31
2023-02-06T02:22:54.674Z,103425.41
2023-02-06T02:25:24.163Z,103423.00
2023-02-06T02:27:50.709Z,103428.94
2023-02-06T02:30:39.149Z,103430.66
2023-02-06T02:33:19.453Z,103432.09
2023-02-06T02:35:58.124Z,103426.75
2023-02-06T02:38:53.360Z,103427.34
2023-02-06T02:41:44.871Z,103426.44
2023-02-06T02:44:21.846Z,103419.50
2023-02-06T02:46:54.955Z,103421.66
2023-02-06T02:49:26.990Z,103425.31
2023-02-06T02:51:54.491Z,103422.56
2023-02-06T02:54:21.286Z,103415.88
2023-02-06T02:56:47.903Z,103416.53
2023-02-06T02:59:28.810Z,103412.81
2023-02-06T03:02:04.119Z,103420.75
2023-02-06T03:04:48.163Z,103411.16
2023-02-06T03:07:21.766Z,103410.19
2023-02-06T03:10:11.329Z,103416.38
2023-02-06T03:12:54.190Z,103414.38
2023-02-06T03:15:35.970Z,103421.50
2023-02-06T03:18:19.376Z,103415.63
2023-02-06T03:20:47.672Z,103413.56
2023-02-06T03:23:21.775Z,103411.91
2023-02-06T03:25:52.383Z,103419.41
2023-02-06T03:28:25.472Z,103421.09
2023-02-06T03:30:56.780Z,103430.47
2023-02-06T03:33:27.992Z,103430.34
2023-02-06T03:35:56.871Z,103433.50
2023-02-06T03:38:25.042Z,103432.31
2023-02-06T03:40:54.596Z,103434.84
2023-02-06T03:43:24.400Z,103439.22
2023-02-06T03:45:56.072Z,103442.56
2023-02-06T03:48:45.785Z,103435.31
2023-02-06T03:51:21.154Z,103438.63
2023-02-06T03:53:50.200Z,103449.38
2023-02-06T03:56:28.266Z,103449.53
2023-02-06T03:58:54.977Z,103448.03
2023-02-06T04:01:23.260Z,103445.00
2023-02-06T04:03:50.121Z,103443.75
2023-02-06T04:06:16.719Z,103441.38
2023-02-06T04:08:43.487Z,103450.44
2023-02-06T04:11:10.026Z,103449.09
2023-02-06T04:13:36.745Z,103464.63
2023-02-06T04:16:03.525Z,103466.88
2023-02-06T04:18:30.144Z,103475.03
2023-02-06T04:21:03.845Z,103468.69
2023-02-06T04:23:30.505Z,103466.72
2023-02-06T04:25:57.113Z,103456.19
2023-02-06T04:28:23.705Z,103448.03
2023-02-06T04:30:50.483Z,103438.41
2023-02-06T04:33:17.208Z,103421.81
2023-02-06T04:35:43.838Z,103432.66
2023-02-06T04:38:10.424Z,103433.41
2023-02-06T04:40:36.981Z,103427.56
2023-02-06T04:43:03.597Z,103431.63
2023-02-06T04:45:30.221Z,103421.81
2023-02-06T04:47:59.184Z,103421.53
2023-02-06T04:50:29.303Z,103423.63
2023-02-06T04:52:55.931Z,103409.50
2023-02-06T04:55:22.803Z,103420.94
2023-02-06T04:57:49.383Z,103419.88
2023-02-06T05:00:16.963Z,103432.84
2023-02-06T05:02:43.591Z,103432.72
2023-02-06T05:05:12.572Z,103437.22
2023-02-06T05:07:39.249Z,103437.50
2023-02-06T05:10:06.518Z,103439.31
2023-02-06T05:12:33.090Z,103427.25
2023-02-06T05:14:59.690Z,103435.41
2023-02-06T05:17:26.270Z,103434.06
2023-02-06T05:19:52.830Z,103439.75
2023-02-06T05:22:19.402Z,103440.84
2023-02-06T05:24:45.962Z,103446.97
2023-02-06T05:27:12.596Z,103435.88
2023-02-06T05:29:39.647Z,103447.00
2023-02-06T05:32:06.338Z,103433.00
2023-02-06T05:34:33.076Z,103423.69
2023-02-06T05:36:59.589Z,103421.41
2023-02-06T05:39:26.314Z,103421.56
2023-02-06T05:41:53.126Z,103417.94
2023-02-06T05:44:19.741Z,103425.16
2023-02-06T05:46:48.361Z,103420.66
2023-02-06T05:49:15.303Z,103417.66
2023-02-06T05:51:41.835Z,103410.56
2023-02-06T05:54:08.402Z,103410.84
2023-02-06T05:56:34.981Z,103416.13
2023-02-06T05:59:01.545Z,103416.13
2023-02-06T06:01:29.135Z,103426.31
2023-02-06T06:03:56.183Z,103420.50
2023-02-06T06:06:22.799Z,103431.22
2023-02-06T06:08:49.374Z,103429.25
2023-02-06T06:11:15.975Z,103418.22
2023-02-06T06:13:42.537Z,103413.13
2023-02-06T06:16:09.110Z,103411.59
2023-02-06T06:18:35.762Z,103425.44
2023-02-06T06:21:02.469Z,103422.56
2023-02-06T06:23:29.114Z,103426.81
2023-02-06T06:25:55.704Z,103427.88
2023-02-06T06:28:22.377Z,103424.72
2023-02-06T06:30:48.958Z,103428.28
2023-02-06T06:33:16.647Z,103428.31
2023-02-06T06:35:43.575Z,103413.34
2023-02-06T06:38:11.266Z,103424.84
2023-02-06T06:40:39.785Z,103427.59
2023-02-06T06:43:06.460Z,103432.72
2023-02-06T06:45:33.063Z,103442.06
2023-02-06T06:47:59.776Z,103451.06
2023-02-06T06:50:26.396Z,103454.81
2023-02-06T06:52:53.000Z,103457.84
2023-02-06T06:55:19.666Z,103453.47
2023-02-06T06:57:47.023Z,103452.09
2023-02-06T07:00:15.825Z,103466.41
2023-02-06T07:02:42.904Z,103456.47
2023-02-06T07:05:10.288Z,103448.22
2023-02-06T07:07:39.056Z,103447.47
2023-02-06T07:10:07.430Z,103455.72
2023-02-06T07:12:34.135Z,103453.19
2023-02-06T07:15:00.803Z,103448.66
2023-02-06T07:17:27.356Z,103460.72
2023-02-06T07:19:54.021Z,103453.50
2023-02-06T07:22:21.247Z,103445.34
2023-02-06T07:24:48.319Z,103445.91
2023-02-06T07:27:14.951Z,103448.78
2023-02-06T07:29:41.536Z,103450.41
2023-02-06T07:32:08.212Z,103450.91
2023-02-06T07:34:36.044Z,103453.88
2023-02-06T07:37:03.434Z,103447.38
2023-02-06T07:39:30.090Z,103439.16
2023-02-06T07:41:56.599Z,103442.59
2023-02-06T07:44:30.024Z,103430.84
2023-02-06T07:46:57.332Z,103432.41
2023-02-06T07:49:24.371Z,103430.41
2023-02-06T07:51:50.975Z,103433.56
2023-02-06T07:54:18.966Z,103445.13
2023-02-06T07:56:47.042Z,103440.63
2023-02-06T07:59:13.702Z,103444.22
2023-02-06T08:01:40.299Z,103444.22
2023-02-06T08:04:06.972Z,103446.28
2023-02-06T08:06:33.624Z,103455.94
2023-02-06T08:09:00.194Z,103450.22
2023-02-06T08:11:30.042Z,103449.38
2023-02-06T08:13:57.210Z,103449.22
2023-02-06T08:16:25.144Z,103450.25
2023-02-06T08:18:52.131Z,103453.06
2023-02-06T08:21:22.119Z,103445.69
2023-02-06T08:23:54.903Z,103445.13
2023-02-06T08:26:22.082Z,103448.41
2023-02-06T08:28:50.845Z,103452.94
2023-02-06T08:31:21.815Z,103456.16
2023-02-06T08:33:49.214Z,103447.25
2023-02-06T08:36:18.393Z,103447.56
2023-02-06T08:38:45.260Z,103450.47
2023-02-06T08:41:22.055Z,103453.44
2023-02-06T08:43:50.609Z,103458.06
2023-02-06T08:46:18.834Z,103462.97
2023-02-06T08:48:45.916Z,103459.06
2023-02-06T08:51:14.285Z,103468.19
2023-02-06T08:53:41.107Z,103463.06
2023-02-06T08:56:10.771Z,103461.94
2023-02-06T08:58:37.891Z,103470.00
2023-02-06T09:01:10.083Z,103466.94
2023-02-06T09:03:36.994Z,103466.22
2023-02-06T09:06:09.908Z,103460.03
2023-02-06T09:08:38.142Z,103452.72
2023-02-06T09:11:08.432Z,103454.75
2023-02-06T09:13:35.800Z,103451.97
2023-02-06T09:16:03.363Z,103452.41
2023-02-06T09:18:30.081Z,103456.34
2023-02-06T09:21:12.072Z,103460.28
2023-02-06T09:23:44.719Z,103464.22
2023-02-06T09:26:13.023Z,103461.78
2023-02-06T09:28:40.019Z,103463.00
2023-02-06T09:31:08.201Z,103465.31
2023-02-06T09:33:36.490Z,103462.53
2023-02-06T09:36:13.951Z,103463.22
2023-02-06T09:38:42.945Z,103461.63
2023-02-06T09:41:20.076Z,103449.78
2023-02-06T09:43:53.612Z,103454.47
2023-02-06T09:46:27.284Z,103447.44
2023-02-06T09:48:56.486Z,103455.44
2023-02-06T09:51:25.817Z,103462.66
2023-02-06T09:54:09.004Z,103458.44
2023-02-06T09:57:09.279Z,103452.69
2023-02-06T09:59:40.704Z,103450.47
2023-02-06T10:02:26.066Z,103438.66
2023-02-06T10:05:14.039Z,103441.38
2023-02-06T10:07:52.781Z,103433.47
2023-02-06T10:10:43.100Z,103429.22
2023-02-06T10:13:17.775Z,103432.63
2023-02-06T10:15:47.987Z,103435.34
2023-02-06T10:18:38.241Z,103444.56
2023-02-06T10:21:10.928Z,103428.88
2023-02-06T10:24:04.471Z,103428.59
2023-02-06T10:26:34.454Z,103417.84
2023-02-06T10:29:01.121Z,103414.25
2023-02-06T10:31:41.223Z,103417.81
2023-02-06T10:34:07.731Z,103416.31
2023-02-06T10:36:37.070Z,103413.69
2023-02-06T10:39:18.146Z,103425.28
2023-02-06T10:42:22.916Z,103422.38
2023-02-06T10:45:19.302Z,103425.94
2023-02-06T10:47:54.994Z,103418.59
2023-02-06T10:50:36.272Z,103407.50
2023-02-06T10:53:27.740Z,103414.59
2023-02-06T10:56:02.787Z,103416.03
2023-02-06T10:58:42.610Z,103410.13
2023-02-06T11:01:25.086Z,103414.94
2023-02-06T11:04:21.783Z,103411.34
2023-02-06T11:06:48.415Z,103405.56
2023-02-06T11:09:16.876Z,103404.44
2023-02-06T11:11:51.309Z,103390.28
2023-02-06T11:14:25.331Z,103392.31
2023-02-06T11:16:53.295Z,103385.09
2023-02-06T11:19:30.271Z,103385.56
2023-02-06T11:22:08.565Z,103385.50
2023-02-06T11:24:39.080Z,103388.19
2023-02-06T11:27:17.029Z,103398.19
2023-02-06T11:29:47.247Z,103397.69
2023-02-06T11:32:36.420Z,103410.72
2023-02-06T11:35:07.879Z,103398.16
2023-02-06T11:37:38.700Z,103400.34
2023-02-06T11:40:17.545Z,103394.91
2023-02-06T11:43:11.109Z,103387.75
2023-02-06T11:45:37.990Z,103390.16
2023-02-06T11:48:07.299Z,103385.75
2023-02-06T11:50:36.404Z,103377.53
2023-02-06T11:53:09.385Z,103378.81
2023-02-06T11:55:37.920Z,103367.47
2023-02-06T11:58:13.988Z,103366.34
2023-02-06T12:00:52.829Z,103371.53
2023-02-06T12:03:51.774Z,103361.84
2023-02-06T12:06:30.715Z,103355.78
2023-02-06T12:09:02.941Z,103356.78
2023-02-06T12:11:43.036Z,103369.16
2023-02-06T12:14:29.413Z,103372.59
2023-02-06T12:16:56.620Z,103372.13
2023-02-06T12:19:33.630Z,103361.09
2023-02-06T12:22:26.888Z,103374.56
2023-02-06T12:24:56.366Z,103354.13
2023-02-06T12:27:34.291Z,103360.72
2023-02-06T12:30:19.726Z,103361.22
2023-02-06T12:32:50.712Z,103348.34
2023-02-06T12:35:44.812Z,103346.19
2023-02-06T12:38:21.501Z,103341.28
2023-02-06T12:40:51.161Z,103340.38
2023-02-06T12:43:18.933Z,103337.94
2023-02-06T12:46:01.586Z,103338.94
2023-02-06T12:48:37.243Z,103334.06
2023-02-06T12:51:27.368Z,103332.91
2023-02-06T12:54:06.264Z,103334.72
2023-02-06T12:56:41.906Z,103340.13
2023-02-06T12:59:56.988Z,103331.47
2023-02-06T13:02:57.589Z,103333.53
2023-02-06T13:05:28.800Z,103322.44
2023-02-06T13:08:03.436Z,103322.47
2023-02-06T13:10:30.077Z,103312.38
2023-02-06T13:12:59.002Z,103319.88
2023-02-06T13:15:31.145Z,103324.50
2023-02-06T13:17:58.017Z,103310.31
2023-02-06T13:20:26.390Z,103314.84
2023-02-06T13:23:14.624Z,103314.09
2023-02-06T13:25:41.199Z,103323.25
2023-02-06T13:28:23.165Z,103319.22
2023-02-06T13:31:00.875Z,103311.00
2023-02-06T13:33:39.445Z,103320.66
2023-02-06T13:36:17.702Z,103320.41
2023-02-06T13:38:44.319Z,103309.97
2023-02-06T13:41:16.925Z,103314.50
2023-02-06T13:44:18.989Z,103312.19
2023-02-06T13:47:33.344Z,103298.13
2023-02-06T13:50:28.703Z,103305.28
2023-02-06T13:52:55.219Z,103311.47
2023-02-06T13:55:42.538Z,103305.97
2023-02-06T13:58:28.057Z,103319.94
2023-02-06T14:00:57.181Z,103307.28
2023-02-06T14:03:33.707Z,103315.84
2023-02-06T14:06:20.792Z,103320.66
2023-02-06T14:08:59.580Z,103328.22
2023-02-06T14:11:29.090Z,103313.53
2023-02-06T14:14:28.301Z,103320.00
2023-02-06T14:17:51.645Z,103308.13
2023-02-06T14:20:34.357Z,103304.88
2023-02-06T14:23:16.210Z,103310.88
2023-02-06T14:26:01.646Z,103305.47
2023-02-06T14:28:43.157Z,103300.63
2023-02-06T14:31:46.053Z,103299.78
2023-02-06T14:34:26.191Z,103305.50
2023-02-06T14:37:20.553Z,103296.59
2023-02-06T14:39:53.526Z,103295.41
2023-02-06T14:42:33.101Z,103295.50
2023-02-06T14:45:05.900Z,103296.88
2023-02-06T14:47:42.104Z,103308.75
2023-02-06T14:50:30.960Z,103302.13
2023-02-06T14:53:03.367Z,103294.75
2023-02-06T14:55:30.548Z,103290.59
2023-02-06T14:57:57.393Z,103291.69
2023-02-06T15:00:25.968Z,103293.38
2023-02-06T15:03:23.249Z,103285.63
2023-02-06T15:06:05.734Z,103288.31
2023-02-06T15:08:33.559Z,103280.34
2023-02-06T15:11:05.128Z,103282.03
2023-02-06T15:13:37.724Z,103278.78
2023-02-06T15:16:07.010Z,103280.16
2023-02-06T15:18:34.957Z,103274.63
2023-02-06T15:21:01.447Z,103270.00
2023-02-06T15:24:04.590Z,103269.13
2023-02-06T15:26:42.973Z,103277.19
2023-02-06T15:29:22.887Z,103277.38
2023-02-06T15:31:53.010Z,103273.31
2023-02-06T15:34:23.084Z,103278.41
2023-02-06T15:36:50.222Z,103270.09
2023-02-06T15:39:18.193Z,103280.91
2023-02-06T15:41:48.028Z,103280.03
2023-02-06T15:44:26.537Z,103282.50
2023-02-06T15:46:54.565Z,103288.06
2023-02-06T15:49:43.270Z,103284.63
2023-02-06T15:52:11.817Z,103291.44
2023-02-06T15:54:42.423Z,103282.91
2023-02-06T15:57:29.173Z,103293.22
2023-02-06T15:59:59.010Z,103296.00
2023-02-06T16:02:30.748Z,103292.97
2023-02-06T16:04:57.588Z,103287.13
2023-02-06T16:07:27.476Z,103285.44
2023-02-06T16:10:09.297Z,103278.13
2023-02-06T16:12:39.111Z,103276.59
2023-02-06T16:15:25.085Z,103280.19
2023-02-06T16:17:52.090Z,103283.19
2023-02-06T16:20:42.159Z,103288.69
2023-02-06T16:23:44.060Z,103293.81
2023-02-06T16:26:18.405Z,103283.91
2023-02-06T16:28:50.996Z,103289.84
2023-02-06T16:31:17.802Z,103287.38
2023-02-06T16:33:47.350Z,103283.97
2023-02-06T16:36:20.554Z,103287.72
2023-02-06T16:38:57.552Z,103285.63
2023-02-06T16:41:27.348Z,103286.94
2023-02-06T16:43:55.939Z,103286.84
2023-02-06T16:46:22.630Z,103286.59
2023-02-06T16:48:49.326Z,103298.44
2023-02-06T16:51:18.840Z,103294.34
2023-02-06T16:53:48.224Z,103292.22
2023-02-06T16:56:16.020Z,103286.97
2023-02-06T16:58:43.020Z,103298.53
2023-02-06T17:01:24.695Z,103306.66
2023-02-06T17:03:52.800Z,103309.75
2023-02-06T17:06:25.783Z,103308.72
2023-02-06T17:08:55.624Z,103320.41
2023-02-06T17:11:22.186Z,103326.09
2023-02-06T17:13:49.045Z,103324.28
2023-02-06T17:16:22.236Z,103331.75
2023-02-06T17:18:49.346Z,103329.69
2023-02-06T17:21:19.514Z,103333.56
2023-02-06T17:23:47.078Z,103331.75
2023-02-06T17:26:16.824Z,103336.34
2023-02-06T17:28:43.970Z,103331.44
2023-02-06T17:31:10.879Z,103325.66
2023-02-06T17:33:37.888Z,103324.50
2023-02-06T17:36:07.784Z,103324.44
2023-02-06T17:38:34.607Z,103322.41
2023-02-06T17:41:01.236Z,103324.69
2023-02-06T17:43:29.547Z,103317.75
2023-02-06T17:45:56.237Z,103312.16
2023-02-06T17:48:22.879Z,103310.53
2023-02-06T17:50:49.485Z,103304.47
2023-02-06T17:53:16.493Z,103304.00
2023-02-06T17:55:45.069Z,103303.53
2023-02-06T17:58:11.663Z,103305.50
2023-02-06T18:00:38.831Z,103310.03
2023-02-06T18:03:05.664Z,103303.19
2023-02-06T18:05:32.405Z,103310.84
2023-02-06T18:07:58.992Z,103306.88
2023-02-06T18:10:25.903Z,103314.72
2023-02-06T18:12:52.557Z,103314.81
2023-02-06T18:15:19.229Z,103313.56
2023-02-06T18:17:45.852Z,103307.41
2023-02-06T18:20:13.008Z,103313.53
2023-02-06T18:22:42.624Z,103315.31
2023-02-06T18:25:11.338Z,103313.19
2023-02-06T18:27:38.852Z,103319.56
2023-02-06T18:30:06.306Z,103317.13
2023-02-06T18:32:33.705Z,103318.50
2023-02-06T18:35:00.591Z,103326.00
2023-02-06T18:37:27.454Z,103330.94
2023-02-06T18:39:57.790Z,103332.72
2023-02-06T18:42:43.037Z,103339.59
2023-02-06T18:45:09.752Z,103337.78
2023-02-06T18:47:36.409Z,103337.50
2023-02-06T18:50:02.998Z,103343.06
2023-02-06T18:52:29.611Z,103345.41
2023-02-06T18:54:56.268Z,103339.59
2023-02-06T18:57:22.933Z,103339.72
2023-02-06T18:59:49.534Z,103336.16
2023-02-06T19:02:16.257Z,103335.91
2023-02-06T19:04:42.909Z,103339.72
2023-02-06T19:07:11.625Z,103325.75
2023-02-06T19:09:38.677Z,103327.81
2023-02-06T19:12:05.428Z,103329.53
2023-02-06T19:14:32.067Z,103334.63
2023-02-06T19:16:58.895Z,103332.16
2023-02-06T19:19:25.590Z,103346.00
2023-02-06T19:21:52.166Z,103345.72
2023-02-06T19:24:18.944Z,103342.09
2023-02-06T19:26:46.190Z,103345.72
2023-02-06T19:29:19.373Z,103351.75
2023-02-06T19:31:53.423Z,103361.03
2023-02-06T19:34:20.170Z,103364.94
2023-02-06T19:36:46.748Z,103373.88
2023-02-06T19:39:14.233Z,103366.53
2023-02-06T19:41:40.843Z,103365.38
2023-02-06T19:44:10.470Z,103357.66
2023-02-06T19:46:37.599Z,103362.25
2023-02-06T19:49:06.213Z,103366.28
2023-02-06T19:51:38.874Z,103368.94
2023-02-06T19:54:05.982Z,103373.16
2023-02-06T19:56:39.239Z,103372.31
2023-02-06T19:59:19.421Z,103374.28
2023-02-06T20:01:51.509Z,103373.06
2023-02-06T20:04:19.384Z,103378.03
2023-02-06T20:06:46.754Z,103385.53
2023-02-06T20:09:15.644Z,103386.03
2023-02-06T20:11:42.877Z,103378.03
2023-02-06T20:14:10.788Z,103379.09
2023-02-06T20:16:39.523Z,103382.59
2023-02-06T20:19:15.432Z,103385.63
2023-02-06T20:21:44.307Z,103382.75
2023-02-06T20:24:13.939Z,103384.66
2023-02-06T20:26:41.703Z,103395.63
2023-02-06T20:29:11.248Z,103395.78
2023-02-06T20:31:37.829Z,103393.72
2023-02-06T20:34:05.596Z,103399.44
2023-02-06T20:36:32.273Z,103396.28
2023-02-06T20:39:00.120Z,103407.53
2023-02-06T20:41:31.088Z,103404.97
2023-02-06T20:43:59.745Z,103408.44
2023-02-06T20:46:29.634Z,103403.72
2023-02-06T20:49:01.806Z,103404.22
2023-02-06T20:51:29.690Z,103406.03
2023-02-06T20:53:56.754Z,103408.13
2023-02-06T20:56:23.991Z,103403.63
2023-02-06T20:58:51.223Z,103411.59
2023-02-06T21:01:19.618Z,103419.75
2023-02-06T21:03:47.075Z,103413.88
2023-02-06T21:06:14.883Z,103410.75
2023-02-06T21:08:42.645Z,103413.16
2023-02-06T21:11:09.450Z,103416.50
2023-02-06T21:13:36.219Z,103420.13
2023-02-06T21:16:02.873Z,103420.44
2023-02-06T21:18:31.446Z,103419.38
2023-02-06T21:21:07.134Z,103419.69
2023-02-06T21:23:34.023Z,103413.41
2023-02-06T21:26:00.820Z,103419.44
2023-02-06T21:28:27.477Z,103424.09
2023-02-06T21:31:02.692Z,103427.75
2023-02-06T21:33:29.799Z,103435.09
2023-02-06T21:35:56.967Z,103424.88
2023-02-06T21:38:24.775Z,103416.44
2023-02-06T21:40:51.430Z,103421.41
2023-02-06T21:43:18.021Z,103415.09
2023-02-06T21:45:47.531Z,103417.19
2023-02-06T21:48:14.416Z,103423.22
2023-02-06T21:50:41.470Z,103419.31
2023-02-06T21:53:09.253Z,103411.16
2023-02-06T21:55:41.616Z,103408.31
2023-02-06T21:58:08.264Z,103400.94
2023-02-06T22:00:34.894Z,103402.91
2023-02-06T22:03:01.724Z,103403.22
2023-02-06T22:05:29.160Z,103409.66
2023-02-06T22:07:56.811Z,103403.81
2023-02-06T22:10:23.388Z,103397.47
2023-02-06T22:12:49.973Z,103405.91
2023-02-06T22:15:17.087Z,103404.72
2023-02-06T22:17:43.667Z,103396.88
2023-02-06T22:20:11.017Z,103401.69
2023-02-06T22:22:38.646Z,103395.81
2023-02-06T22:25:05.758Z,103399.13
2023-02-06T22:27:33.099Z,103395.66
2023-02-06T22:29:59.637Z,103402.00
2023-02-06T22:32:26.294Z,103396.88
2023-02-06T22:34:53.941Z,103399.88
2023-02-06T22:37:20.792Z,103392.06
2023-02-06T22:39:47.345Z,103388.44
2023-02-06T22:42:13.992Z,103394.59
2023-02-06T22:44:40.536Z,103387.84
2023-02-06T22:47:07.246Z,103398.84
2023-02-06T22:49:33.869Z,103392.50
2023-02-06T22:52:00.369Z,103398.06
2023-02-06T22:54:27.059Z,103406.81
2023-02-06T22:56:53.652Z,103410.13
2023-02-06T22:59:22.932Z,103415.53
2023-02-06T23:01:55.110Z,103401.38
2023-02-06T23:04:24.494Z,103404.09
2023-02-06T23:06:52.070Z,103426.66
2023-02-06T23:09:33.832Z,103442.91
2023-02-06T23:12:01.333Z,103442.28
2023-02-06T23:14:30.027Z,103434.63
2023-02-06T23:16:57.833Z,103421.53
2023-02-06T23:19:24.690Z,103432.22
2023-02-06T23:21:51.483Z,103434.44
2023-02-06T23:24:19.023Z,103433.13
2023-02-06T23:26:48.887Z,103430.88
2023-02-06T23:29:17.901Z,103432.38
2023-02-06T23:31:46.316Z,103439.41
2023-02-06T23:34:14.102Z,103429.66
2023-02-06T23:36:41.751Z,103434.75
2023-02-06T23:39:08.314Z,103435.34
2023-02-06T23:41:35.170Z,103428.91
2023-02-06T23:44:05.439Z,103424.47
2023-02-06T23:46:36.160Z,103431.84
2023-02-06T23:49:03.384Z,103436.03
2023-02-06T23:51:30.024Z,103437.59
2023-02-06T23:53:56.585Z,103436.78
2023-02-06T23:56:26.563Z,103436.19
2023-02-06T23:58:55.478Z,103425.13
